createdAt,value
2022-10-16T00:01:31.773Z,63.53
2022-10-16T00:04:01.747Z,63.24
2022-10-16T00:06:32.757Z,63.71
2022-10-16T00:09:01.616Z,64.05
2022-10-16T00:11:31.516Z,63.43
2022-10-16T00:14:03.223Z,63.91
2022-10-16T00:16:31.954Z,63.42
2022-10-16T00:19:00.474Z,63.62
2022-10-16T00:21:30.732Z,63.58
2022-10-16T00:24:17.739Z,63.70
2022-10-16T00:26:46.351Z,63.68
2022-10-16T00:29:16.580Z,63.70
2022-10-16T00:31:45.427Z,63.48
2022-10-16T00:34:14.034Z,63.58
2022-10-16T00:36:42.551Z,63.57
2022-10-16T00:39:11.022Z,63.83
2022-10-16T00:41:39.308Z,63.51
2022-10-16T00:44:40.778Z,63.71
2022-10-16T00:47:13.446Z,63.48
2022-10-16T00:49:41.913Z,63.30
2022-10-16T00:52:10.284Z,63.71
2022-10-16T00:54:38.714Z,63.57
2022-10-16T00:57:08.462Z,63.51
2022-10-16T00:59:39.523Z,63.36
2022-10-16T01:02:10.027Z,63.65
2022-10-16T01:04:42.169Z,63.56
2022-10-16T01:07:16.350Z,63.30
2022-10-16T01:09:53.674Z,63.66
2022-10-16T01:12:27.749Z,63.54
2022-10-16T01:14:59.078Z,63.17
2022-10-16T01:17:33.427Z,63.54
2022-10-16T01:20:12.619Z,63.74
2022-10-16T01:22:48.147Z,63.44
2022-10-16T01:25:21.418Z,63.68
2022-10-16T01:27:51.924Z,63.32
2022-10-16T01:30:24.037Z,63.11
2022-10-16T01:32:56.836Z,63.63
2022-10-16T01:35:28.483Z,63.17
2022-10-16T01:38:02.037Z,63.16
2022-10-16T01:40:31.015Z,63.27
2022-10-16T01:43:02.710Z,63.44
2022-10-16T01:45:32.371Z,63.17
2022-10-16T01:48:05.045Z,63.43
2022-10-16T01:50:34.720Z,63.46
2022-10-16T01:53:04.255Z,63.47
2022-10-16T01:55:35.186Z,63.39
2022-10-16T01:58:07.764Z,63.33
2022-10-16T02:00:36.258Z,63.50
2022-10-16T02:03:05.048Z,63.17
2022-10-16T02:05:36.870Z,63.11
2022-10-16T02:08:05.911Z,63.68
2022-10-16T02:10:36.647Z,63.48
2022-10-16T02:13:10.852Z,63.24
2022-10-16T02:15:39.565Z,63.33
2022-10-16T02:18:09.029Z,63.33
2022-10-16T02:20:42.973Z,63.19
2022-10-16T02:23:14.711Z,63.40
2022-10-16T02:25:44.512Z,63.24
2022-10-16T02:28:18.234Z,63.40
2022-10-16T02:30:49.561Z,63.18
2022-10-16T02:33:19.680Z,63.24
2022-10-16T02:35:49.639Z,63.34
2022-10-16T02:38:18.690Z,63.19
2022-10-16T02:40:47.115Z,63.42
2022-10-16T02:43:17.369Z,63.23
2022-10-16T02:45:45.818Z,62.98
2022-10-16T02:48:14.209Z,62.96
2022-10-16T02:50:42.608Z,63.10
2022-10-16T02:53:10.931Z,62.99
2022-10-16T02:55:39.447Z,63.09
2022-10-16T02:58:07.916Z,62.98
2022-10-16T03:00:37.628Z,63.17
2022-10-16T03:03:06.018Z,63.51
2022-10-16T03:05:34.370Z,62.92
2022-10-16T03:08:02.822Z,63.00
2022-10-16T03:10:31.152Z,63.11
2022-10-16T03:12:59.749Z,63.04
2022-10-16T03:15:29.145Z,63.37
2022-10-16T03:17:59.430Z,62.99
2022-10-16T03:20:27.887Z,63.02
2022-10-16T03:22:56.278Z,63.32
2022-10-16T03:25:24.708Z,63.02
2022-10-16T03:27:53.111Z,62.91
2022-10-16T03:30:21.751Z,62.91
2022-10-16T03:32:54.706Z,63.17
2022-10-16T03:35:25.950Z,62.85
2022-10-16T03:37:54.546Z,62.82
2022-10-16T03:40:23.245Z,62.97
2022-10-16T03:42:51.725Z,62.83
2022-10-16T03:45:20.093Z,62.84
2022-10-16T03:47:48.534Z,62.96
2022-10-16T03:50:16.945Z,62.93
2022-10-16T03:52:46.624Z,62.68
2022-10-16T03:55:15.073Z,62.82
2022-10-16T03:57:43.534Z,62.96
2022-10-16T04:00:13.338Z,63.26
2022-10-16T04:02:41.893Z,62.75
2022-10-16T04:05:10.797Z,62.88
2022-10-16T04:07:39.687Z,62.77
2022-10-16T04:10:10.143Z,62.62
2022-10-16T04:12:38.474Z,62.92
2022-10-16T04:15:07.421Z,62.72
2022-10-16T04:17:35.746Z,62.68
2022-10-16T04:20:05.374Z,62.94
2022-10-16T04:22:33.762Z,62.79
2022-10-16T04:25:02.203Z,62.93
2022-10-16T04:27:32.219Z,62.68
2022-10-16T04:30:01.354Z,62.79
2022-10-16T04:32:29.724Z,62.76
2022-10-16T04:34:58.146Z,62.84
2022-10-16T04:37:27.381Z,62.72
2022-10-16T04:39:57.943Z,62.94
2022-10-16T04:42:26.230Z,62.83
2022-10-16T04:44:56.024Z,62.49
2022-10-16T04:47:24.756Z,62.82
2022-10-16T04:49:53.397Z,62.76
2022-10-16T04:52:22.617Z,62.43
2022-10-16T04:54:51.414Z,62.67
2022-10-16T04:57:19.834Z,62.49
2022-10-16T04:59:48.156Z,62.60
2022-10-16T05:02:17.917Z,62.36
2022-10-16T05:04:46.230Z,62.58
2022-10-16T05:07:14.555Z,62.59
2022-10-16T05:09:42.930Z,62.74
2022-10-16T05:12:11.300Z,62.31
2022-10-16T05:14:39.728Z,62.44
2022-10-16T05:17:07.991Z,62.55
2022-10-16T05:19:37.730Z,62.52
2022-10-16T05:22:06.568Z,62.64
2022-10-16T05:24:35.073Z,62.29
2022-10-16T05:27:03.455Z,62.43
2022-10-16T05:29:31.755Z,62.67
2022-10-16T05:32:00.069Z,62.74
2022-10-16T05:34:28.495Z,62.48
2022-10-16T05:36:58.728Z,62.51
2022-10-16T05:39:27.165Z,62.77
2022-10-16T05:41:55.539Z,62.53
2022-10-16T05:44:24.003Z,62.62
2022-10-16T05:46:52.360Z,62.39
2022-10-16T05:49:20.685Z,62.50
2022-10-16T05:51:49.147Z,62.37
2022-10-16T05:54:19.238Z,62.71
2022-10-16T05:56:47.619Z,62.27
2022-10-16T05:59:16.118Z,62.40
2022-10-16T06:01:44.529Z,62.49
2022-10-16T06:04:12.856Z,62.32
2022-10-16T06:06:41.481Z,62.18
2022-10-16T06:09:11.761Z,62.46
2022-10-16T06:11:41.341Z,62.68
2022-10-16T06:14:10.246Z,62.42
2022-10-16T06:16:39.438Z,62.19
2022-10-16T06:19:09.504Z,62.46
2022-10-16T06:21:37.797Z,62.14
2022-10-16T06:24:06.246Z,62.34
2022-10-16T06:26:34.676Z,62.30
2022-10-16T06:29:04.401Z,62.45
2022-10-16T06:31:34.187Z,62.36
2022-10-16T06:34:03.054Z,62.31
2022-10-16T06:36:31.414Z,62.30
2022-10-16T06:38:59.766Z,62.09
2022-10-16T06:41:28.362Z,62.32
2022-10-16T06:43:56.776Z,62.38
2022-10-16T06:46:28.130Z,62.40
2022-10-16T06:48:56.519Z,62.08
2022-10-16T06:51:26.011Z,62.17
2022-10-16T06:54:05.018Z,62.03
2022-10-16T06:56:35.048Z,62.19
2022-10-16T06:59:03.459Z,62.17
2022-10-16T07:01:33.504Z,62.03
2022-10-16T07:04:02.903Z,62.25
2022-10-16T07:06:33.897Z,62.16
2022-10-16T07:09:05.327Z,61.84
2022-10-16T07:11:34.092Z,62.12
2022-10-16T07:14:02.463Z,62.00
2022-10-16T07:16:34.282Z,62.24
2022-10-16T07:19:04.475Z,61.94
2022-10-16T07:21:36.400Z,61.99
2022-10-16T07:24:06.786Z,62.19
2022-10-16T07:26:36.530Z,61.92
2022-10-16T07:29:05.370Z,61.97
2022-10-16T07:31:35.722Z,62.02
2022-10-16T07:34:05.232Z,61.72
2022-10-16T07:36:33.673Z,61.82
2022-10-16T07:39:02.132Z,61.81
2022-10-16T07:41:31.036Z,62.05
2022-10-16T07:44:01.263Z,61.93
2022-10-16T07:46:29.888Z,62.03
2022-10-16T07:48:59.684Z,61.48
2022-10-16T07:51:29.099Z,61.90
2022-10-16T07:53:57.602Z,61.96
2022-10-16T07:56:26.033Z,61.80
2022-10-16T07:58:55.036Z,61.46
2022-10-16T08:01:23.649Z,61.45
2022-10-16T08:03:53.588Z,61.52
2022-10-16T08:06:27.581Z,61.42
2022-10-16T08:08:57.560Z,61.63
2022-10-16T08:11:26.035Z,61.40
2022-10-16T08:13:54.359Z,61.79
2022-10-16T08:16:23.386Z,61.31
2022-10-16T08:18:52.755Z,61.64
2022-10-16T08:21:25.499Z,61.43
2022-10-16T08:23:58.352Z,61.36
2022-10-16T08:26:28.256Z,61.49
2022-10-16T08:28:57.423Z,61.33
2022-10-16T08:31:27.444Z,61.11
2022-10-16T08:33:56.494Z,61.42
2022-10-16T08:36:26.175Z,61.05
2022-10-16T08:38:55.647Z,61.37
2022-10-16T08:41:57.775Z,61.10
2022-10-16T08:44:47.631Z,61.12
2022-10-16T08:47:19.701Z,61.51
2022-10-16T08:49:57.800Z,61.46
2022-10-16T08:52:30.456Z,61.67
2022-10-16T08:54:58.947Z,60.98
2022-10-16T08:57:28.335Z,61.10
2022-10-16T09:00:01.342Z,60.98
2022-10-16T09:02:33.682Z,60.86
2022-10-16T09:05:12.559Z,60.76
2022-10-16T09:07:48.764Z,61.11
2022-10-16T09:10:28.923Z,60.68
2022-10-16T09:13:03.078Z,60.94
2022-10-16T09:15:34.333Z,60.98
2022-10-16T09:18:07.320Z,61.15
2022-10-16T09:20:42.693Z,60.79
2022-10-16T09:23:20.856Z,61.01
2022-10-16T09:25:51.658Z,61.25
2022-10-16T09:28:20.862Z,60.88
2022-10-16T09:30:52.717Z,61.26
2022-10-16T09:33:23.451Z,61.50
2022-10-16T09:35:53.164Z,61.47
2022-10-16T09:38:29.039Z,61.39
2022-10-16T09:41:02.629Z,61.83
2022-10-16T09:43:36.256Z,61.36
2022-10-16T09:46:06.403Z,61.50
2022-10-16T09:48:39.100Z,61.31
2022-10-16T09:51:09.163Z,61.43
2022-10-16T09:53:42.725Z,61.26
2022-10-16T09:56:14.686Z,61.84
2022-10-16T09:58:52.237Z,61.76
2022-10-16T10:01:21.408Z,61.37
2022-10-16T10:03:51.035Z,61.50
2022-10-16T10:06:27.488Z,61.53
2022-10-16T10:09:02.362Z,62.24
2022-10-16T10:11:44.975Z,62.29
2022-10-16T10:14:21.734Z,62.12
2022-10-16T10:16:50.892Z,62.59
2022-10-16T10:19:20.983Z,62.90
2022-10-16T10:21:50.198Z,62.78
2022-10-16T10:24:20.941Z,62.94
2022-10-16T10:26:53.797Z,62.71
2022-10-16T10:29:31.038Z,63.65
2022-10-16T10:32:07.746Z,63.29
2022-10-16T10:34:44.510Z,62.98
2022-10-16T10:37:26.104Z,63.18
2022-10-16T10:40:01.172Z,63.22
2022-10-16T10:42:35.094Z,63.45
2022-10-16T10:45:15.718Z,63.35
2022-10-16T10:47:55.114Z,63.81
2022-10-16T10:50:27.101Z,64.13
2022-10-16T10:53:02.081Z,64.43
2022-10-16T10:55:39.179Z,64.70
2022-10-16T10:58:27.201Z,64.74
2022-10-16T11:01:00.957Z,65.14
2022-10-16T11:03:37.406Z,65.71
2022-10-16T11:06:09.156Z,65.03
2022-10-16T11:08:44.169Z,65.44
2022-10-16T11:11:18.691Z,65.28
2022-10-16T11:13:52.852Z,65.76
2022-10-16T11:16:24.560Z,65.70
2022-10-16T11:18:57.356Z,65.03
2022-10-16T11:21:30.301Z,64.24
2022-10-16T11:24:03.525Z,64.60
2022-10-16T11:26:36.778Z,64.48
2022-10-16T11:29:07.400Z,64.89
2022-10-16T11:31:38.862Z,64.36
2022-10-16T11:34:20.713Z,64.42
2022-10-16T11:36:52.368Z,63.72
2022-10-16T11:39:23.074Z,63.64
2022-10-16T11:41:56.102Z,64.20
2022-10-16T11:44:36.966Z,63.53
2022-10-16T11:47:47.097Z,63.29
2022-10-16T11:50:04.896Z,63.13
2022-10-16T11:52:39.009Z,62.73
2022-10-16T11:55:15.319Z,62.61
2022-10-16T11:57:48.318Z,62.63
2022-10-16T12:00:23.884Z,62.67
2022-10-16T12:02:57.971Z,62.64
2022-10-16T12:05:33.931Z,62.69
2022-10-16T12:08:09.057Z,60.72
2022-10-16T12:13:31.114Z,60.17
2022-10-16T12:16:22.659Z,60.72
2022-10-16T12:18:51.204Z,60.55
2022-10-16T12:21:20.214Z,60.28
2022-10-16T12:23:50.598Z,60.04
2022-10-16T12:26:26.885Z,60.11
2022-10-16T12:28:57.298Z,60.39
2022-10-16T12:31:25.959Z,60.02
2022-10-16T12:33:59.821Z,60.10
2022-10-16T12:36:30.707Z,60.19
2022-10-16T12:39:00.174Z,60.08
2022-10-16T12:41:30.047Z,60.59
2022-10-16T12:44:02.147Z,60.21
2022-10-16T12:46:40.204Z,60.22
2022-10-16T12:49:25.412Z,60.32
2022-10-16T12:51:55.791Z,60.54
2022-10-16T12:54:29.135Z,60.40
2022-10-16T12:57:08.894Z,60.52
2022-10-16T12:59:44.526Z,60.58
2022-10-16T13:02:48.725Z,60.57
2022-10-16T13:05:26.749Z,60.79
2022-10-16T13:08:07.310Z,60.51
2022-10-16T13:10:40.124Z,60.74
2022-10-16T13:13:18.978Z,60.90
2022-10-16T13:16:03.483Z,60.95
2022-10-16T13:18:38.510Z,60.56
2022-10-16T13:21:15.629Z,61.04
2022-10-16T13:23:50.645Z,60.93
2022-10-16T13:26:27.754Z,60.68
2022-10-16T13:29:01.069Z,60.77
2022-10-16T13:31:32.811Z,60.88
2022-10-16T13:34:02.410Z,60.85
2022-10-16T13:36:32.359Z,60.89
2022-10-16T13:39:13.263Z,61.00
2022-10-16T13:41:42.051Z,60.91
2022-10-16T13:44:17.503Z,60.98
2022-10-16T13:46:47.510Z,60.94
2022-10-16T13:49:18.344Z,61.03
2022-10-16T13:51:56.439Z,61.10
2022-10-16T13:54:25.308Z,61.26
2022-10-16T13:57:03.202Z,61.19
2022-10-16T13:59:39.806Z,61.07
2022-10-16T14:02:19.191Z,61.11
2022-10-16T14:04:48.629Z,61.14
2022-10-16T14:07:22.399Z,61.08
2022-10-16T14:09:51.978Z,60.94
2022-10-16T14:12:21.962Z,61.01
2022-10-16T14:14:53.678Z,60.90
2022-10-16T14:17:25.608Z,60.66
2022-10-16T14:19:59.548Z,60.75
2022-10-16T14:22:34.282Z,61.02
2022-10-16T14:25:03.209Z,60.98
2022-10-16T14:27:36.463Z,60.76
2022-10-16T14:30:15.073Z,60.81
2022-10-16T14:32:55.609Z,60.71
2022-10-16T14:35:26.565Z,60.78
2022-10-16T14:37:55.921Z,60.66
2022-10-16T14:40:26.854Z,60.56
2022-10-16T14:42:55.604Z,60.76
2022-10-16T14:45:26.331Z,60.70
2022-10-16T14:47:57.689Z,60.51
2022-10-16T14:50:26.267Z,60.92
2022-10-16T14:52:54.772Z,60.92
2022-10-16T14:57:56.869Z,60.71
2022-10-16T15:00:28.140Z,60.56
2022-10-16T15:02:57.927Z,60.68
2022-10-16T15:05:28.298Z,60.61
2022-10-16T15:07:57.354Z,60.62
2022-10-16T15:10:27.421Z,60.83
2022-10-16T15:12:56.504Z,60.92
2022-10-16T15:15:39.577Z,60.81
2022-10-16T15:18:09.422Z,60.57
2022-10-16T15:20:40.066Z,60.85
2022-10-16T15:23:15.186Z,60.92
2022-10-16T15:25:45.368Z,60.72
2022-10-16T15:28:14.668Z,60.66
2022-10-16T15:30:45.758Z,61.06
2022-10-16T15:33:17.764Z,60.82
2022-10-16T15:35:48.765Z,60.89
2022-10-16T15:38:17.648Z,60.85
2022-10-16T15:40:45.995Z,60.80
2022-10-16T15:43:14.362Z,60.74
2022-10-16T15:45:42.847Z,60.79
2022-10-16T15:48:13.985Z,61.06
2022-10-16T15:53:12.727Z,61.38
2022-10-16T15:55:41.476Z,61.01
2022-10-16T15:58:09.948Z,60.98
2022-10-16T16:00:38.585Z,60.96
2022-10-16T16:03:07.334Z,61.11
2022-10-16T16:05:40.844Z,61.11
2022-10-16T16:08:15.564Z,61.08
2022-10-16T16:10:44.183Z,61.18
2022-10-16T16:13:12.700Z,61.19
2022-10-16T16:15:41.589Z,61.06
2022-10-16T16:18:10.648Z,61.08
2022-10-16T16:20:39.279Z,61.21
2022-10-16T16:23:07.677Z,61.13
2022-10-16T16:25:37.376Z,61.24
2022-10-16T16:28:05.812Z,61.37
2022-10-16T16:30:34.262Z,61.31
2022-10-16T16:33:02.691Z,61.19
2022-10-16T16:35:31.008Z,61.17
2022-10-16T16:37:59.349Z,61.35
2022-10-16T16:40:29.272Z,61.14
2022-10-16T16:42:58.973Z,61.42
2022-10-16T16:47:56.641Z,61.54
2022-10-16T16:50:25.050Z,61.44
2022-10-16T16:52:53.366Z,61.32
2022-10-16T16:55:21.757Z,61.08
2022-10-16T16:57:50.103Z,61.34
2022-10-16T17:00:19.809Z,61.42
2022-10-16T17:02:50.010Z,61.45
2022-10-16T17:05:19.550Z,61.39
2022-10-16T17:07:48.015Z,61.49
2022-10-16T17:10:16.739Z,61.57
2022-10-16T17:12:45.199Z,61.39
2022-10-16T17:15:13.660Z,61.50
2022-10-16T17:17:43.469Z,61.45
2022-10-16T17:20:12.152Z,61.42
2022-10-16T17:22:40.516Z,61.49
2022-10-16T17:25:09.616Z,61.49
2022-10-16T17:27:37.932Z,61.49
2022-10-16T17:30:07.149Z,61.54
2022-10-16T17:32:35.682Z,61.46
2022-10-16T17:35:06.769Z,61.58
2022-10-16T17:37:35.147Z,61.77
2022-10-16T17:40:03.689Z,61.88
2022-10-16T17:42:32.306Z,61.76
2022-10-16T17:45:00.771Z,62.02
2022-10-16T17:47:29.485Z,61.71
2022-10-16T17:49:59.502Z,61.85
2022-10-16T17:52:29.573Z,61.85
2022-10-16T17:54:59.176Z,62.04
2022-10-16T17:57:27.504Z,61.78
2022-10-16T17:59:56.048Z,61.88
2022-10-16T18:02:24.948Z,62.07
2022-10-16T18:04:54.482Z,61.93
2022-10-16T18:07:23.005Z,61.90
2022-10-16T18:10:12.556Z,62.13
2022-10-16T18:12:41.199Z,62.23
2022-10-16T18:15:10.979Z,62.18
2022-10-16T18:17:39.410Z,62.27
2022-10-16T18:20:09.117Z,62.37
2022-10-16T18:22:37.982Z,62.10
2022-10-16T18:25:08.521Z,62.39
2022-10-16T18:27:36.975Z,62.48
2022-10-16T18:30:06.315Z,62.55
2022-10-16T18:32:35.761Z,62.65
2022-10-16T18:35:04.454Z,62.55
2022-10-16T18:37:33.024Z,62.41
2022-10-16T18:40:01.391Z,62.35
2022-10-16T18:42:31.238Z,62.64
2022-10-16T18:45:00.532Z,62.47
2022-10-16T18:47:30.477Z,62.58
2022-10-16T18:49:59.061Z,62.62
2022-10-16T18:52:27.566Z,62.55
2022-10-16T18:54:58.271Z,62.37
2022-10-16T18:57:30.012Z,62.67
2022-10-16T18:59:59.847Z,62.54
2022-10-16T19:02:28.282Z,62.68
2022-10-16T19:04:56.647Z,62.74
2022-10-16T19:07:25.406Z,62.76
2022-10-16T19:09:53.949Z,62.78
2022-10-16T19:12:22.377Z,62.63
2022-10-16T19:14:51.028Z,62.48
2022-10-16T19:17:20.855Z,62.66
2022-10-16T19:19:49.569Z,62.75
2022-10-16T19:22:28.327Z,62.68
2022-10-16T19:24:57.195Z,62.53
2022-10-16T19:27:25.625Z,62.61
2022-10-16T19:29:53.945Z,62.37
2022-10-16T19:32:23.620Z,62.49
2022-10-16T19:34:52.060Z,62.34
2022-10-16T19:37:25.746Z,62.33
2022-10-16T19:39:54.220Z,62.31
2022-10-16T19:42:22.787Z,62.25
2022-10-16T19:44:51.680Z,61.80
2022-10-16T19:47:22.974Z,62.16
2022-10-16T19:49:53.693Z,62.34
2022-10-16T19:52:23.176Z,62.34
2022-10-16T19:54:51.729Z,62.38
2022-10-16T19:57:20.417Z,62.25
2022-10-16T19:59:52.573Z,62.15
2022-10-16T20:02:21.926Z,62.22
2022-10-16T20:04:50.562Z,62.52
2022-10-16T20:07:23.510Z,62.39
2022-10-16T20:09:52.348Z,62.50
2022-10-16T20:12:20.967Z,62.37
2022-10-16T20:14:49.230Z,62.51
2022-10-16T20:17:17.630Z,62.50
2022-10-16T20:19:46.041Z,62.55
2022-10-16T20:22:14.416Z,62.48
2022-10-16T20:24:43.969Z,62.55
2022-10-16T20:27:12.268Z,62.52
2022-10-16T20:29:40.745Z,62.81
2022-10-16T20:32:09.159Z,62.54
2022-10-16T20:37:07.298Z,62.87
2022-10-16T20:39:36.243Z,62.70
2022-10-16T20:42:06.165Z,62.57
2022-10-16T20:44:34.715Z,62.77
2022-10-16T20:47:03.055Z,62.69
2022-10-16T20:49:40.415Z,62.55
2022-10-16T20:52:09.493Z,62.63
2022-10-16T20:54:37.879Z,62.65
2022-10-16T20:57:07.446Z,62.64
2022-10-16T20:59:35.932Z,62.69
2022-10-16T21:02:05.550Z,62.69
2022-10-16T21:04:34.022Z,62.56
2022-10-16T21:07:02.387Z,62.69
2022-10-16T21:09:30.739Z,62.59
2022-10-16T21:11:59.077Z,62.56
2022-10-16T21:14:29.148Z,62.71
2022-10-16T21:16:57.481Z,62.83
2022-10-16T21:19:26.627Z,62.92
2022-10-16T21:21:55.100Z,62.98
2022-10-16T21:24:23.671Z,62.81
2022-10-16T21:26:53.656Z,62.99
2022-10-16T21:29:22.609Z,62.76
2022-10-16T21:31:53.639Z,62.84
2022-10-16T21:34:22.138Z,62.51
2022-10-16T21:36:51.197Z,62.83
2022-10-16T21:39:21.353Z,62.62
2022-10-16T21:41:51.432Z,62.83
2022-10-16T21:44:20.604Z,62.86
2022-10-16T21:46:49.421Z,62.68
2022-10-16T21:49:20.536Z,62.66
2022-10-16T21:51:50.955Z,62.50
2022-10-16T21:54:22.267Z,62.79
2022-10-16T21:56:51.116Z,62.77
2022-10-16T21:59:19.995Z,63.06
2022-10-16T22:01:48.722Z,62.49
2022-10-16T22:04:19.063Z,62.48
2022-10-16T22:06:47.629Z,62.67
2022-10-16T22:09:16.207Z,62.65
2022-10-16T22:11:45.723Z,62.73
2022-10-16T22:14:16.161Z,62.56
2022-10-16T22:16:45.219Z,62.69
2022-10-16T22:19:14.172Z,62.71
2022-10-16T22:21:45.971Z,62.45
2022-10-16T22:24:14.878Z,62.62
2022-10-16T22:26:43.474Z,62.63
2022-10-16T22:29:14.184Z,62.65
2022-10-16T22:31:42.815Z,62.76
2022-10-16T22:34:12.996Z,62.67
2022-10-16T22:36:41.416Z,62.58
2022-10-16T22:39:11.175Z,62.61
2022-10-16T22:41:39.523Z,62.47
2022-10-16T22:44:07.869Z,62.43
2022-10-16T22:46:36.246Z,62.57
2022-10-16T22:49:04.559Z,62.61
2022-10-16T22:51:32.971Z,62.55
2022-10-16T22:54:01.353Z,62.56
2022-10-16T22:56:31.062Z,62.63
2022-10-16T22:58:59.314Z,62.68
2022-10-16T23:01:30.867Z,62.43
2022-10-16T23:04:01.199Z,62.48
2022-10-16T23:06:30.102Z,62.64
2022-10-16T23:08:59.712Z,62.42
2022-10-16T23:11:28.709Z,62.67
2022-10-16T23:13:58.518Z,62.58
2022-10-16T23:16:26.865Z,62.50
2022-10-16T23:18:55.301Z,62.52
2022-10-16T23:21:25.812Z,62.51
2022-10-16T23:23:55.184Z,62.50
2022-10-16T23:26:25.037Z,62.34
2022-10-16T23:28:53.575Z,62.42
2022-10-16T23:31:23.351Z,62.50
2022-10-16T23:33:51.814Z,62.24
2022-10-16T23:36:21.523Z,62.69
2022-10-16T23:38:50.561Z,62.52
2022-10-16T23:41:19.886Z,62.45
2022-10-16T23:43:48.446Z,62.59
2022-10-16T23:46:16.938Z,62.42
2022-10-16T23:48:46.662Z,62.35
2022-10-16T23:51:15.290Z,62.40
2022-10-16T23:53:43.691Z,62.42
2022-10-16T23:56:12.059Z,62.21
2022-10-16T23:58:40.441Z,62.15
